createdAt,value
2019-05-05T00:01:37.438Z,4.25
2019-05-05T00:04:07.768Z,3.72
2019-05-05T00:06:36.497Z,3.25
2019-05-05T00:09:06.361Z,3.25
2019-05-05T00:11:39.433Z,4.00
2019-05-05T00:14:12.828Z,4.45
2019-05-05T00:16:49.212Z,2.27
2019-05-05T00:19:29.954Z,2.33
2019-05-05T00:21:49.761Z,2.70
2019-05-05T00:24:19.060Z,2.12
2019-05-05T00:26:47.772Z,2.02
2019-05-05T00:29:16.579Z,2.47
2019-05-05T00:31:45.478Z,2.20
2019-05-05T00:34:15.291Z,2.20
2019-05-05T00:36:44.647Z,2.17
2019-05-05T00:39:14.927Z,2.00
2019-05-05T00:41:44.928Z,2.12
2019-05-05T00:44:15.303Z,2.12
2019-05-05T00:46:58.034Z,1.98
2019-05-05T00:49:28.346Z,2.90
2019-05-05T00:51:57.207Z,2.20
2019-05-05T00:54:26.047Z,2.00
2019-05-05T00:56:54.774Z,2.12
2019-05-05T00:59:25.257Z,2.30
2019-05-05T01:02:01.135Z,1.82
2019-05-05T01:04:40.172Z,2.40
2019-05-05T01:07:08.898Z,1.95
2019-05-05T01:09:38.163Z,2.60
2019-05-05T01:12:07.410Z,1.77
2019-05-05T01:14:36.143Z,2.70
2019-05-05T01:17:05.321Z,2.50
2019-05-05T01:19:34.957Z,2.50
2019-05-05T01:22:04.965Z,2.42
2019-05-05T01:24:34.286Z,2.70
2019-05-05T01:27:04.236Z,2.42
2019-05-05T01:29:34.773Z,2.00
2019-05-05T01:32:05.307Z,2.62
2019-05-05T01:34:35.673Z,2.60
2019-05-05T01:37:06.025Z,2.52
2019-05-05T01:39:36.517Z,2.00
2019-05-05T01:42:14.301Z,1.77
2019-05-05T01:44:44.753Z,2.42
2019-05-05T01:47:14.841Z,2.70
2019-05-05T01:49:45.392Z,2.65
2019-05-05T01:52:14.922Z,2.50
2019-05-05T01:54:44.612Z,2.10
2019-05-05T01:57:14.784Z,2.02
2019-05-05T01:59:44.844Z,2.62
2019-05-05T02:02:14.665Z,2.10
2019-05-05T02:04:44.780Z,2.17
2019-05-05T02:07:14.518Z,2.72
2019-05-05T02:09:45.085Z,2.37
2019-05-05T02:12:15.864Z,2.35
2019-05-05T02:14:44.811Z,2.58
2019-05-05T02:17:14.423Z,1.80
2019-05-05T02:19:44.368Z,2.35
2019-05-05T02:22:14.697Z,1.90
2019-05-05T02:24:44.396Z,3.15
2019-05-05T02:27:14.578Z,3.17
2019-05-05T02:29:45.378Z,6.53
2019-05-05T02:32:31.805Z,9.08
2019-05-05T02:35:02.212Z,9.63
2019-05-05T02:37:30.933Z,10.08
2019-05-05T02:40:06.297Z,9.43
2019-05-05T02:42:31.233Z,9.58
2019-05-05T02:45:05.570Z,11.48
2019-05-05T02:47:54.714Z,11.93
2019-05-05T02:50:25.107Z,9.80
2019-05-05T02:52:53.599Z,10.68
2019-05-05T02:55:23.570Z,10.45
2019-05-05T02:57:54.408Z,9.78
2019-05-05T03:00:27.187Z,9.38
2019-05-05T03:02:58.276Z,9.30
2019-05-05T03:05:27.756Z,8.30
2019-05-05T03:07:58.093Z,6.70
2019-05-05T03:10:28.805Z,6.40
2019-05-05T03:13:00.822Z,7.20
2019-05-05T03:15:49.100Z,7.40
2019-05-05T03:18:17.853Z,6.62
2019-05-05T03:20:46.707Z,6.70
2019-05-05T03:23:15.424Z,6.30
2019-05-05T03:25:44.342Z,7.78
2019-05-05T03:28:13.696Z,6.53
2019-05-05T03:30:45.392Z,7.17
2019-05-05T03:33:16.234Z,6.70
2019-05-05T03:35:45.881Z,6.28
2019-05-05T03:38:15.632Z,6.10
2019-05-05T03:40:46.558Z,6.10
2019-05-05T03:43:17.008Z,6.83
2019-05-05T03:45:47.481Z,7.08
2019-05-05T03:48:17.836Z,6.50
2019-05-05T03:50:46.693Z,5.95
2019-05-05T03:53:16.905Z,6.33
2019-05-05T03:55:45.736Z,6.62
2019-05-05T03:58:15.787Z,6.30
2019-05-05T04:00:56.364Z,6.45
2019-05-05T04:03:25.051Z,6.37
2019-05-05T04:05:58.426Z,6.70
2019-05-05T04:08:27.831Z,7.75
2019-05-05T04:10:56.563Z,7.22
2019-05-05T04:13:25.461Z,6.53
2019-05-05T04:16:08.179Z,12.33
2019-05-05T04:18:44.222Z,12.30
2019-05-05T04:21:14.479Z,7.25
2019-05-05T04:23:44.228Z,10.78
2019-05-05T04:26:14.290Z,33.75
2019-05-05T04:28:43.709Z,7.55
2019-05-05T04:31:13.538Z,7.90
2019-05-05T04:33:44.362Z,8.13
2019-05-05T04:36:14.455Z,8.98
2019-05-05T04:38:43.915Z,14.20
2019-05-05T04:41:14.023Z,10.95
2019-05-05T04:43:44.168Z,33.60
2019-05-05T04:46:14.085Z,11.43
2019-05-05T04:48:54.439Z,14.10
2019-05-05T04:51:24.817Z,14.78
2019-05-05T04:54:06.960Z,12.20
2019-05-05T04:56:36.060Z,8.55
2019-05-05T04:59:04.850Z,8.05
2019-05-05T05:01:34.148Z,8.68
2019-05-05T05:04:21.008Z,7.78
2019-05-05T05:06:54.645Z,8.38
2019-05-05T05:09:23.834Z,6.92
2019-05-05T05:11:54.552Z,6.62
2019-05-05T05:14:24.728Z,7.25
2019-05-05T05:16:56.801Z,6.37
2019-05-05T05:19:25.534Z,5.78
2019-05-05T05:22:01.583Z,6.03
2019-05-05T05:24:24.629Z,6.58
2019-05-05T05:26:55.297Z,6.58
2019-05-05T05:29:23.922Z,6.53
2019-05-05T05:31:53.538Z,6.75
2019-05-05T05:34:23.865Z,10.35
2019-05-05T05:36:55.139Z,11.00
2019-05-05T05:39:25.483Z,7.03
2019-05-05T05:41:56.348Z,6.78
2019-05-05T05:44:35.846Z,6.10
2019-05-05T05:47:13.881Z,7.20
2019-05-05T05:49:44.035Z,7.42
2019-05-05T05:52:18.761Z,7.78
2019-05-05T05:54:44.254Z,19.07
2019-05-05T05:57:13.645Z,11.20
2019-05-05T05:59:44.365Z,5.60
2019-05-05T06:02:15.541Z,6.10
2019-05-05T06:04:44.576Z,5.58
2019-05-05T06:07:14.239Z,4.65
2019-05-05T06:09:43.866Z,4.47
2019-05-05T06:12:14.187Z,5.40
2019-05-05T06:14:44.712Z,5.20
2019-05-05T06:17:13.726Z,3.60
2019-05-05T06:19:44.452Z,2.70
2019-05-05T06:22:15.168Z,3.85
2019-05-05T06:24:43.912Z,4.00
2019-05-05T06:27:14.253Z,2.87
2019-05-05T06:29:43.855Z,3.12
2019-05-05T06:32:14.553Z,3.42
2019-05-05T06:34:44.304Z,2.67
2019-05-05T06:37:14.491Z,3.15
2019-05-05T06:39:43.966Z,3.27
2019-05-05T06:42:17.257Z,4.00
2019-05-05T06:44:47.621Z,3.33
2019-05-05T06:47:18.044Z,3.58
2019-05-05T06:49:46.767Z,4.03
2019-05-05T06:52:15.489Z,2.60
2019-05-05T06:54:44.267Z,3.55
2019-05-05T06:57:13.679Z,4.72
2019-05-05T06:59:43.902Z,3.15
2019-05-05T07:02:14.549Z,3.67
2019-05-05T07:04:44.489Z,2.95
2019-05-05T07:07:14.543Z,7.25
2019-05-05T07:09:44.703Z,9.20
2019-05-05T07:12:13.951Z,2.80
2019-05-05T07:14:44.520Z,2.90
2019-05-05T07:17:14.083Z,2.05
2019-05-05T07:19:44.986Z,2.70
2019-05-05T07:22:14.431Z,3.70
2019-05-05T07:24:43.952Z,3.22
2019-05-05T07:27:13.845Z,7.20
2019-05-05T07:29:43.685Z,2.80
2019-05-05T07:32:14.222Z,2.10
2019-05-05T07:34:47.826Z,3.30
2019-05-05T07:37:16.685Z,7.12
2019-05-05T07:39:45.400Z,4.83
2019-05-05T07:42:14.188Z,6.20
2019-05-05T07:44:44.117Z,4.12
2019-05-05T07:47:14.581Z,3.65
2019-05-05T07:49:44.141Z,2.75
2019-05-05T07:52:14.898Z,2.62
2019-05-05T07:54:43.673Z,2.25
2019-05-05T07:57:14.504Z,3.05
2019-05-05T07:59:45.002Z,4.95
2019-05-05T08:02:14.559Z,4.45
2019-05-05T08:04:43.814Z,6.30
2019-05-05T08:07:14.594Z,3.00
2019-05-05T08:09:44.461Z,2.10
2019-05-05T08:12:13.831Z,3.22
2019-05-05T08:14:44.463Z,7.92
2019-05-05T08:17:30.945Z,1.60
2019-05-05T08:20:04.084Z,2.58
2019-05-05T08:22:33.978Z,4.22
2019-05-05T08:25:07.249Z,12.65
2019-05-05T08:27:54.365Z,2.80
2019-05-05T08:30:24.832Z,2.00
2019-05-05T08:32:55.349Z,11.25
2019-05-05T08:35:24.093Z,5.83
2019-05-05T08:37:54.236Z,5.08
2019-05-05T08:40:23.969Z,10.65
2019-05-05T08:42:53.977Z,11.75
2019-05-05T08:45:26.190Z,3.62
2019-05-05T08:47:54.157Z,9.00
2019-05-05T08:50:26.445Z,45.60
2019-05-05T08:52:53.792Z,14.03
2019-05-05T08:55:24.476Z,4.42
2019-05-05T08:57:53.956Z,5.87
2019-05-05T09:00:24.468Z,6.45
2019-05-05T09:02:54.292Z,5.90
2019-05-05T09:05:23.899Z,5.80
2019-05-05T09:07:54.589Z,3.20
2019-05-05T09:10:23.662Z,8.38
2019-05-05T09:12:54.269Z,10.75
2019-05-05T09:15:24.273Z,5.03
2019-05-05T09:17:54.525Z,3.58
2019-05-05T09:20:24.275Z,13.45
2019-05-05T09:22:53.613Z,7.90
2019-05-05T09:25:24.179Z,4.25
2019-05-05T09:27:56.990Z,2.85
2019-05-05T09:30:31.504Z,4.05
2019-05-05T09:33:00.298Z,5.47
2019-05-05T09:35:29.010Z,4.65
2019-05-05T09:37:58.153Z,3.33
2019-05-05T09:40:40.905Z,12.28
2019-05-05T09:43:10.320Z,2.98
2019-05-05T09:45:39.732Z,3.83
2019-05-05T09:48:08.649Z,3.17
2019-05-05T09:50:37.432Z,4.53
2019-05-05T09:53:06.355Z,3.10
2019-05-05T09:55:35.164Z,3.17
2019-05-05T09:58:04.478Z,6.40
2019-05-05T10:00:34.950Z,2.30
2019-05-05T10:03:03.877Z,2.87
2019-05-05T10:05:34.240Z,9.75
2019-05-05T10:08:03.622Z,2.05
2019-05-05T10:10:33.694Z,2.10
2019-05-05T10:13:04.144Z,5.00
2019-05-05T10:15:33.162Z,5.30
2019-05-05T10:18:03.511Z,4.95
2019-05-05T10:20:34.235Z,2.33
2019-05-05T10:23:05.020Z,7.28
2019-05-05T10:25:37.880Z,4.10
2019-05-05T10:28:06.733Z,3.20
2019-05-05T10:30:36.014Z,7.75
2019-05-05T10:33:04.772Z,8.35
2019-05-05T10:35:34.476Z,4.50
2019-05-05T10:38:03.452Z,4.10
2019-05-05T10:40:34.011Z,2.27
2019-05-05T10:43:04.366Z,4.22
2019-05-05T10:45:33.379Z,2.00
2019-05-05T10:48:04.215Z,3.47
2019-05-05T10:50:34.293Z,1.95
2019-05-05T10:53:05.099Z,2.30
2019-05-05T10:55:34.698Z,2.15
2019-05-05T10:58:03.998Z,2.20
2019-05-05T11:00:41.344Z,2.47
2019-05-05T11:03:10.160Z,3.87
2019-05-05T11:05:38.984Z,3.50
2019-05-05T11:08:07.701Z,2.02
2019-05-05T11:10:36.459Z,4.40
2019-05-05T11:13:05.663Z,1.50
2019-05-05T11:15:34.373Z,1.10
2019-05-05T11:18:03.992Z,1.10
2019-05-05T11:20:34.095Z,1.40
2019-05-05T11:23:04.835Z,0.90
2019-05-05T11:25:33.835Z,1.17
2019-05-05T11:28:04.397Z,1.25
2019-05-05T11:30:36.079Z,2.15
2019-05-05T11:35:49.226Z,1.25
2019-05-05T11:38:19.409Z,0.90
2019-05-05T11:40:48.125Z,0.93
2019-05-05T11:43:17.188Z,1.05
2019-05-05T11:45:46.073Z,0.80
2019-05-05T11:48:14.950Z,1.00
2019-05-05T11:50:43.855Z,1.30
2019-05-05T11:53:14.446Z,1.17
2019-05-05T11:55:44.271Z,0.98
2019-05-05T11:58:14.335Z,1.45
2019-05-05T12:00:43.840Z,1.00
2019-05-05T12:03:14.386Z,0.95
2019-05-05T12:05:44.285Z,0.98
2019-05-05T12:08:14.628Z,1.25
2019-05-05T12:10:51.489Z,1.05
2019-05-05T12:13:20.214Z,1.00
2019-05-05T12:15:50.585Z,1.20
2019-05-05T12:18:19.365Z,0.93
2019-05-05T12:20:48.144Z,0.80
2019-05-05T12:23:16.960Z,0.90
2019-05-05T12:25:56.929Z,0.98
2019-05-05T12:28:24.882Z,0.82
2019-05-05T12:31:08.161Z,1.32
2019-05-05T12:33:36.952Z,1.55
2019-05-05T12:36:06.013Z,2.50
2019-05-05T12:38:34.906Z,0.90
2019-05-05T12:41:04.313Z,1.42
2019-05-05T12:43:34.019Z,0.90
2019-05-05T12:46:07.298Z,0.90
2019-05-05T12:48:40.349Z,0.65
2019-05-05T12:51:09.063Z,0.90
2019-05-05T12:53:37.800Z,1.00
2019-05-05T12:56:06.658Z,0.53
2019-05-05T12:58:35.904Z,0.70
2019-05-05T13:01:06.283Z,0.78
2019-05-05T13:03:35.061Z,1.40
2019-05-05T13:06:04.159Z,0.98
2019-05-05T13:08:34.009Z,0.88
2019-05-05T13:11:04.071Z,0.90
2019-05-05T13:13:34.599Z,0.60
2019-05-05T13:16:04.293Z,0.88
2019-05-05T13:18:33.926Z,0.95
2019-05-05T13:21:16.439Z,0.80
2019-05-05T13:24:01.946Z,0.70
2019-05-05T13:26:46.222Z,0.93
2019-05-05T13:29:14.662Z,0.85
2019-05-05T13:31:44.804Z,0.70
2019-05-05T13:34:13.760Z,1.27
2019-05-05T13:36:44.092Z,0.70
2019-05-05T13:39:14.442Z,0.80
2019-05-05T13:41:44.849Z,0.88
2019-05-05T13:44:15.555Z,1.02
2019-05-05T13:46:44.354Z,0.80
2019-05-05T13:49:19.178Z,1.10
2019-05-05T13:51:47.876Z,0.93
2019-05-05T13:54:16.663Z,0.65
2019-05-05T13:56:45.411Z,1.00
2019-05-05T13:59:14.316Z,0.88
2019-05-05T14:01:44.812Z,1.30
2019-05-05T14:04:13.858Z,1.20
2019-05-05T14:06:44.449Z,1.20
2019-05-05T14:09:13.792Z,1.10
2019-05-05T14:11:44.557Z,1.17
2019-05-05T14:14:13.763Z,1.12
2019-05-05T14:16:44.621Z,1.10
2019-05-05T14:19:14.657Z,0.90
2019-05-05T14:21:44.611Z,1.00
2019-05-05T14:24:15.468Z,1.20
2019-05-05T14:26:44.181Z,0.90
2019-05-05T14:29:14.723Z,0.85
2019-05-05T14:31:44.628Z,1.00
2019-05-05T14:34:15.030Z,0.88
2019-05-05T14:36:53.362Z,0.72
2019-05-05T14:39:23.870Z,0.93
2019-05-05T14:41:53.955Z,0.90
2019-05-05T14:44:24.019Z,1.12
2019-05-05T14:46:52.999Z,0.82
2019-05-05T14:49:21.749Z,0.93
2019-05-05T14:51:50.473Z,1.20
2019-05-05T14:54:19.196Z,1.30
2019-05-05T14:56:47.908Z,0.88
2019-05-05T14:59:16.638Z,0.88
2019-05-05T15:01:45.377Z,1.32
2019-05-05T15:04:15.728Z,0.90
2019-05-05T15:06:46.083Z,0.88
2019-05-05T15:09:33.639Z,1.35
2019-05-05T15:12:05.191Z,1.10
2019-05-05T15:14:34.023Z,1.57
2019-05-05T15:17:03.681Z,1.40
2019-05-05T15:19:34.030Z,1.32
2019-05-05T15:22:03.751Z,1.77
2019-05-05T15:24:33.591Z,2.40
2019-05-05T15:27:02.416Z,1.37
2019-05-05T15:29:31.208Z,1.10
2019-05-05T15:31:59.927Z,1.30
2019-05-05T15:34:28.804Z,2.10
2019-05-05T15:36:59.142Z,1.05
2019-05-05T15:39:27.928Z,1.10
2019-05-05T15:41:56.721Z,1.55
2019-05-05T15:44:26.946Z,4.22
2019-05-05T15:46:57.871Z,4.47
2019-05-05T15:49:26.092Z,4.72
2019-05-05T15:51:54.821Z,5.28
2019-05-05T15:54:23.759Z,4.97
2019-05-05T15:57:02.995Z,4.25
2019-05-05T15:59:23.955Z,2.62
2019-05-05T16:01:54.731Z,2.55
2019-05-05T16:04:23.713Z,2.95
2019-05-05T16:06:54.066Z,2.80
2019-05-05T16:09:23.072Z,7.72
2019-05-05T16:11:51.781Z,2.40
2019-05-05T16:14:21.171Z,2.25
2019-05-05T16:16:51.533Z,2.50
2019-05-05T16:19:28.167Z,1.80
2019-05-05T16:21:58.584Z,2.52
2019-05-05T16:24:29.025Z,3.25
2019-05-05T16:26:57.811Z,4.05
2019-05-05T16:29:26.499Z,5.83
2019-05-05T16:31:56.846Z,6.15
2019-05-05T16:34:25.556Z,4.30
2019-05-05T16:36:56.940Z,4.05
2019-05-05T16:39:25.637Z,4.20
2019-05-05T16:41:56.477Z,3.90
2019-05-05T16:44:25.172Z,6.03
2019-05-05T16:46:54.037Z,3.52
2019-05-05T16:49:22.981Z,3.20
2019-05-05T16:51:54.526Z,3.47
2019-05-05T16:54:24.994Z,2.90
2019-05-05T16:56:53.723Z,2.72
2019-05-05T16:59:23.732Z,2.30
2019-05-05T17:01:54.095Z,3.20
2019-05-05T17:04:24.346Z,3.20
2019-05-05T17:06:54.677Z,4.22
2019-05-05T17:09:25.104Z,4.72
2019-05-05T17:12:09.280Z,3.42
2019-05-05T17:14:40.346Z,3.22
2019-05-05T17:17:10.696Z,3.85
2019-05-05T17:19:41.056Z,3.52
2019-05-05T17:22:11.484Z,3.60
2019-05-05T17:24:40.184Z,3.22
2019-05-05T17:27:08.934Z,3.83
2019-05-05T17:29:37.704Z,4.10
2019-05-05T17:32:06.411Z,4.40
2019-05-05T17:34:35.290Z,4.17
2019-05-05T17:37:04.364Z,3.83
2019-05-05T17:39:34.755Z,5.40
2019-05-05T17:42:11.019Z,5.83
2019-05-05T17:44:46.798Z,6.80
2019-05-05T17:47:24.439Z,4.60
2019-05-05T17:49:54.873Z,4.87
2019-05-05T17:52:28.395Z,6.10
2019-05-05T17:54:58.078Z,6.92
2019-05-05T17:57:26.721Z,5.62
2019-05-05T17:59:55.536Z,6.00
2019-05-05T18:02:24.406Z,5.20
2019-05-05T18:04:54.070Z,4.87
2019-05-05T18:07:24.745Z,5.33
2019-05-05T18:09:55.124Z,5.87
2019-05-05T18:12:25.585Z,6.40
2019-05-05T18:15:05.237Z,7.25
2019-05-05T18:17:34.098Z,6.42
2019-05-05T18:20:04.452Z,6.10
2019-05-05T18:22:34.280Z,7.00
2019-05-05T18:25:03.875Z,6.40
2019-05-05T18:27:34.361Z,8.63
2019-05-05T18:30:03.969Z,7.65
2019-05-05T18:32:34.216Z,8.13
2019-05-05T18:35:06.518Z,7.55
2019-05-05T18:37:34.739Z,7.47
2019-05-05T18:40:04.525Z,6.22
2019-05-05T18:42:34.005Z,5.47
2019-05-05T18:45:07.191Z,6.15
2019-05-05T18:47:35.945Z,7.40
2019-05-05T18:50:06.941Z,7.00
2019-05-05T18:52:35.650Z,7.75
2019-05-05T18:55:08.357Z,7.60
2019-05-05T18:57:37.056Z,7.05
2019-05-05T19:00:10.368Z,6.97
2019-05-05T19:02:46.896Z,7.90
2019-05-05T19:05:24.587Z,7.55
2019-05-05T19:07:56.155Z,7.37
2019-05-05T19:10:25.080Z,8.95
2019-05-05T19:12:54.223Z,10.88
2019-05-05T19:15:24.439Z,14.38
2019-05-05T19:17:53.380Z,13.08
2019-05-05T19:20:24.456Z,14.00
2019-05-05T19:23:03.504Z,14.68
2019-05-05T19:25:31.724Z,15.25
2019-05-05T19:28:00.435Z,16.77
2019-05-05T19:30:29.249Z,17.35
2019-05-05T19:32:58.048Z,17.73
2019-05-05T19:35:40.713Z,21.10
2019-05-05T19:37:57.170Z,19.52
2019-05-05T19:40:25.872Z,18.15
2019-05-05T19:42:54.590Z,17.12
2019-05-05T19:45:24.127Z,17.98
2019-05-05T19:47:53.721Z,23.15
2019-05-05T19:50:24.522Z,24.12
2019-05-05T19:52:53.868Z,25.00
2019-05-05T19:55:22.819Z,22.75
2019-05-05T19:57:53.906Z,24.18
2019-05-05T20:00:23.473Z,24.05
2019-05-05T20:03:03.708Z,25.73
2019-05-05T20:05:24.590Z,21.90
2019-05-05T20:07:55.307Z,20.60
2019-05-05T20:10:23.913Z,22.42
2019-05-05T20:12:54.008Z,21.70
2019-05-05T20:15:27.364Z,22.22
2019-05-05T20:17:56.080Z,21.02
2019-05-05T20:20:24.808Z,22.73
2019-05-05T20:22:54.768Z,20.88
2019-05-05T20:25:24.379Z,20.30
2019-05-05T20:27:55.729Z,19.40
2019-05-05T20:30:24.671Z,20.20
2019-05-05T20:32:58.147Z,20.12
2019-05-05T20:35:28.543Z,20.70
2019-05-05T20:38:02.022Z,20.80
2019-05-05T20:40:35.160Z,19.98
2019-05-05T20:43:04.144Z,19.48
2019-05-05T20:45:34.641Z,19.85
2019-05-05T20:48:04.510Z,20.25
2019-05-05T20:50:34.341Z,22.65
2019-05-05T20:53:04.903Z,21.80
2019-05-05T20:55:34.038Z,20.77
2019-05-05T20:58:04.723Z,22.82
2019-05-05T21:00:34.803Z,21.27
2019-05-05T21:03:04.818Z,21.48
2019-05-05T21:05:34.479Z,21.95
2019-05-05T21:08:04.867Z,22.52
2019-05-05T21:10:34.787Z,21.80
2019-05-05T21:13:03.873Z,22.15
2019-05-05T21:15:34.058Z,22.93
2019-05-05T21:18:04.913Z,24.27
2019-05-05T21:20:34.684Z,24.75
2019-05-05T21:23:05.227Z,24.43
2019-05-05T21:25:38.795Z,24.90
2019-05-05T21:28:07.557Z,24.57
2019-05-05T21:30:36.399Z,24.57
2019-05-05T21:33:05.137Z,26.10
2019-05-05T21:35:34.841Z,27.17
2019-05-05T21:38:04.765Z,28.25
2019-05-05T21:40:34.618Z,29.35
2019-05-05T21:43:04.916Z,28.70
2019-05-05T21:45:34.727Z,28.83
2019-05-05T21:48:04.431Z,27.50
2019-05-05T21:50:35.153Z,28.42
2019-05-05T21:53:17.501Z,29.15
2019-05-05T21:55:50.312Z,28.77
2019-05-05T21:58:25.334Z,30.20
2019-05-05T22:00:55.934Z,30.08
2019-05-05T22:03:29.090Z,34.00
2019-05-05T22:05:57.811Z,34.03
2019-05-05T22:08:26.633Z,36.10
2019-05-05T22:10:55.359Z,35.00
2019-05-05T22:13:24.239Z,36.28
2019-05-05T22:15:54.602Z,35.43
2019-05-05T22:18:23.549Z,37.80
2019-05-05T22:21:06.045Z,36.03
2019-05-05T22:23:36.820Z,34.73
2019-05-05T22:26:05.240Z,33.85
2019-05-05T22:28:34.183Z,33.38
2019-05-05T22:31:04.661Z,35.08
2019-05-05T22:33:34.166Z,35.38
2019-05-05T22:36:04.466Z,36.83
2019-05-05T22:38:33.961Z,37.85
2019-05-05T22:41:02.972Z,35.88
2019-05-05T22:43:31.693Z,36.42
2019-05-05T22:46:00.413Z,37.65
2019-05-05T22:48:29.135Z,37.42
2019-05-05T22:50:58.933Z,39.83
2019-05-05T22:53:27.631Z,38.65
2019-05-05T22:55:57.468Z,39.45
2019-05-05T22:58:26.216Z,37.08
2019-05-05T23:00:55.140Z,40.10
2019-05-05T23:03:31.204Z,38.58
2019-05-05T23:06:01.709Z,40.23
2019-05-05T23:08:31.644Z,38.78
2019-05-05T23:11:00.376Z,41.37
2019-05-05T23:13:29.089Z,41.10
2019-05-05T23:15:59.426Z,40.17
2019-05-05T23:18:30.129Z,39.73
2019-05-05T23:21:06.439Z,39.88
2019-05-05T23:23:36.811Z,39.88
2019-05-05T23:26:23.147Z,38.65
2019-05-05T23:28:53.578Z,38.78
2019-05-05T23:31:24.141Z,38.10
2019-05-05T23:33:54.697Z,38.40
2019-05-05T23:36:24.200Z,39.63
2019-05-05T23:38:54.902Z,37.50
2019-05-05T23:41:25.697Z,36.65
2019-05-05T23:43:54.610Z,29.80
2019-05-05T23:46:24.121Z,37.65
2019-05-05T23:48:53.662Z,40.23
2019-05-05T23:51:24.254Z,40.60
2019-05-05T23:53:55.093Z,40.43
2019-05-05T23:56:24.076Z,38.17
2019-05-05T23:58:54.910Z,29.05
